Time;durP1;ratioP1;P1;durP2;ratioP2;P2;SDS_P1;SDS_P2;PMS_P1;PMS_P2;Temp;Humidity;BMP_temperature;BMP_pressure;BME280_temperature;BME280_humidity;BME280_pressure;Samples;Min_cycle;Max_cycle;Signal;HPM_P1;HPM_P2
2022/05/20 00:00:26;;;;;;;19.85;13.35;;;;;;;12.08;100.00;102225.75;5043323;28;20025;-67
2022/05/20 00:02:51;;;;;;;20.90;14.45;;;;;;;12.06;100.00;102214.34;5037890;28;20503;-67
2022/05/20 00:05:17;;;;;;;23.20;14.55;;;;;;;12.04;100.00;102221.47;5035713;28;20095;-68
2022/05/20 00:07:43;;;;;;;21.38;13.52;;;;;;;12.03;100.00;102225.03;5033350;28;20036;-67
2022/05/20 00:10:17;;;;;;;21.98;13.13;;;;;;;12.04;100.00;102226.78;5042352;28;20116;-68
2022/05/20 00:12:44;;;;;;;21.60;14.40;;;;;;;12.04;100.00;102225.91;5034744;28;20017;-67
2022/05/20 00:15:12;;;;;;;25.88;15.18;;;;;;;12.02;100.00;102228.63;5040163;28;20076;-67
2022/05/20 00:17:38;;;;;;;21.80;15.60;;;;;;;12.01;100.00;102223.31;5030045;28;20477;-68
2022/05/20 00:20:05;;;;;;;23.15;16.15;;;;;;;11.99;100.00;102225.19;5033517;28;20083;-68
2022/05/20 00:22:30;;;;;;;24.27;15.95;;;;;;;11.96;100.00;102223.47;5035251;28;20445;-67
2022/05/20 00:27:39;;;;;;;27.88;17.17;;;;;;;11.94;100.00;102223.50;5047470;28;20060;-67
2022/05/20 00:30:05;;;;;;;25.42;16.70;;;;;;;11.96;100.00;102227.00;5041869;28;20025;-67
2022/05/20 00:32:31;;;;;;;23.63;17.25;;;;;;;11.96;100.00;102224.34;5035157;28;20033;-68
2022/05/20 00:34:57;;;;;;;24.92;17.83;;;;;;;11.99;100.00;102210.09;5045947;28;20022;-68
2022/05/20 00:37:22;;;;;;;27.83;17.65;;;;;;;11.96;100.00;102216.38;5037194;28;20045;-68
2022/05/20 00:39:48;;;;;;;27.85;19.10;;;;;;;11.94;100.00;102214.66;5041477;28;20029;-67
2022/05/20 00:42:16;;;;;;;27.05;19.25;;;;;;;11.93;100.00;102213.78;5050693;28;20112;-64
2022/05/20 00:44:42;;;;;;;27.23;19.65;;;;;;;11.90;100.00;102208.56;5054126;28;20040;-67
2022/05/20 00:47:09;;;;;;;30.55;20.58;;;;;;;11.92;100.00;102208.53;5040851;28;20488;-67
2022/05/20 00:49:36;;;;;;;30.52;20.25;;;;;;;11.95;100.00;102211.09;5049633;28;20131;-68
2022/05/20 00:52:04;;;;;;;29.98;19.73;;;;;;;11.95;100.00;102211.09;5032287;28;20066;-67
2022/05/20 00:54:44;;;;;;;30.45;19.98;;;;;;;11.95;100.00;102201.34;5047213;28;20037;-67
2022/05/20 00:57:15;;;;;;;25.52;18.35;;;;;;;11.95;100.00;102198.69;5032498;28;20067;-67
2022/05/20 00:59:42;;;;;;;;;;;;;;;11.95;100.00;102209.31;5035734;28;20032;-68
2022/05/20 01:02:12;;;;;;;27.95;17.55;;;;;;;12.03;100.00;102216.22;5030497;28;19913;-68
2022/05/20 01:04:39;;;;;;;29.23;18.92;;;;;;;12.09;100.00;102211.56;5032733;28;20021;-67
2022/05/20 01:07:06;;;;;;;28.20;18.75;;;;;;;12.06;100.00;102214.34;5046450;28;20033;-67
2022/05/20 01:09:32;;;;;;;26.95;17.83;;;;;;;12.03;100.00;102203.78;5048935;28;20041;-68
2022/05/20 01:11:57;;;;;;;30.65;20.30;;;;;;;12.01;100.00;102202.97;5030783;28;20046;-67
2022/05/20 01:14:25;;;;;;;27.92;19.45;;;;;;;11.99;100.00;102196.84;5054671;28;20033;-68
2022/05/20 01:16:51;;;;;;;29.55;18.80;;;;;;;12.01;100.00;102191.47;5045217;28;20481;-67
2022/05/20 01:19:24;;;;;;;28.48;19.15;;;;;;;12.01;100.00;102186.16;5033976;28;20029;-67
2022/05/20 01:21:49;;;;;;;31.10;18.85;;;;;;;11.99;100.00;102172.94;5047804;28;20064;-68
2022/05/20 01:24:14;;;;;;;28.85;19.77;;;;;;;11.98;100.00;102160.56;5053953;28;20064;-68
2022/05/20 01:26:40;;;;;;;27.35;19.50;;;;;;;11.96;100.00;102162.44;5052282;28;20102;-67
2022/05/20 01:29:08;;;;;;;27.17;19.20;;;;;;;11.92;100.00;102166.91;5053950;28;20029;-68
2022/05/20 01:31:33;;;;;;;34.03;19.83;;;;;;;11.88;100.00;102167.03;5053646;28;20052;-68
2022/05/20 01:33:59;;;;;;;27.60;19.50;;;;;;;11.84;100.00;102162.75;5053366;28;20061;-68
2022/05/20 01:36:26;;;;;;;25.83;18.73;;;;;;;11.80;100.00;102156.66;5032202;28;20029;-68
2022/05/20 01:38:53;;;;;;;27.65;17.92;;;;;;;11.77;100.00;102154.94;5032763;28;20040;-68
2022/05/20 01:41:34;;;;;;;26.48;17.88;;;;;;;11.74;100.00;102143.53;5043968;28;20064;-68
2022/05/20 01:44:37;;;;;;;24.67;17.52;;;;;;;11.68;100.00;102151.72;5036160;28;20052;-68
2022/05/20 01:47:47;;;;;;;25.60;16.77;;;;;;;11.68;100.00;102160.53;5052298;28;20516;-68
2022/05/20 01:50:20;;;;;;;24.35;16.40;;;;;;;11.65;100.00;102147.34;5050797;28;20423;-68
2022/05/20 01:53:22;;;;;;;26.17;17.45;;;;;;;11.63;100.00;102150.03;5052905;28;20039;-68
2022/05/20 01:55:57;;;;;;;26.88;16.17;;;;;;;11.57;100.00;102157.31;5045409;28;20107;-68
2022/05/20 01:58:27;;;;;;;25.40;16.35;;;;;;;11.53;100.00;102151.22;5053127;28;20024;-68
2022/05/20 02:00:56;;;;;;;25.50;15.93;;;;;;;11.47;100.00;102144.31;5052609;28;20485;-68
2022/05/20 02:03:46;;;;;;;24.77;16.90;;;;;;;11.46;100.00;102139.03;5052650;28;20476;-69
2022/05/20 02:06:27;;;;;;;25.35;16.23;;;;;;;11.43;100.00;102129.38;5053012;28;20021;-68
2022/05/20 02:08:55;;;;;;;27.25;18.02;;;;;;;11.43;100.00;102145.31;5052686;28;20032;-68
2022/05/20 02:11:48;;;;;;;25.50;17.95;;;;;;;11.41;100.00;102148.91;5052956;28;20104;-69
2022/05/20 02:14:28;;;;;;;28.75;18.95;;;;;;;11.39;100.00;102148.94;5047989;28;20045;-68
2022/05/20 02:17:14;;;;;;;21.63;15.70;;;;;;;11.38;100.00;102149.88;5039086;28;20100;-69
2022/05/20 02:19:42;;;;;;;27.58;19.27;;;;;;;11.34;100.00;102147.31;5039058;28;20036;-68
2022/05/20 02:22:13;;;;;;;27.50;18.52;;;;;;;11.31;100.00;102148.28;5038989;28;20026;-67
2022/05/20 02:24:40;;;;;;;27.25;18.25;;;;;;;11.31;100.00;102142.97;5041410;28;20021;-68
2022/05/20 02:27:10;;;;;;;24.77;17.73;;;;;;;11.28;100.00;102143.94;5048399;28;20052;-69
2022/05/20 02:29:40;;;;;;;22.92;16.98;;;;;;;11.28;100.00;102135.13;5049657;28;20472;-69
2022/05/20 02:32:14;;;;;;;28.00;20.08;;;;;;;11.24;100.00;102139.63;5044980;28;20028;-68
2022/05/20 02:34:40;;;;;;;30.25;21.25;;;;;;;11.22;100.00;102132.63;5042928;28;20026;-69
2022/05/20 02:37:23;;;;;;;28.13;19.27;;;;;;;11.19;100.00;102135.34;5055792;28;20387;-67
2022/05/20 02:39:49;;;;;;;36.17;22.00;;;;;;;11.16;100.00;102131.00;5049278;28;20124;-69
2022/05/20 02:42:14;;;;;;;32.70;21.02;;;;;;;11.14;100.00;102138.13;5036123;28;20602;-67
2022/05/20 02:44:40;;;;;;;33.42;20.67;;;;;;;11.13;100.00;102144.34;5046742;28;20041;-67
2022/05/20 02:47:05;;;;;;;31.77;21.70;;;;;;;11.12;100.00;102138.16;5037456;28;20041;-68
2022/05/20 02:49:31;;;;;;;31.67;20.27;;;;;;;11.12;100.00;102126.69;5042200;28;20028;-68
2022/05/20 02:51:56;;;;;;;32.40;21.77;;;;;;;11.13;100.00;102126.63;5038410;28;20143;-68
2022/05/20 02:54:22;;;;;;;34.13;22.48;;;;;;;11.16;100.00;102123.03;5047299;28;20040;-68
2022/05/20 02:56:47;;;;;;;35.78;22.00;;;;;;;11.19;100.00;102132.69;5051850;28;20029;-67
2022/05/20 03:04:45;;;;;;;29.30;20.90;;;;;;;11.31;100.00;102148.28;5048756;28;20250;-67
2022/05/20 03:07:10;;;;;;;32.83;21.58;;;;;;;11.37;100.00;102139.28;5039580;28;20123;-68
2022/05/20 03:09:36;;;;;;;29.48;20.85;;;;;;;11.46;100.00;102144.34;5043976;28;20021;-68
2022/05/20 03:12:01;;;;;;;37.60;24.25;;;;;;;11.57;100.00;102144.94;5048842;28;20090;-68
2022/05/20 03:14:26;;;;;;;33.58;23.48;;;;;;;11.75;100.00;102155.91;5038192;28;20037;-67
2022/05/20 03:16:52;;;;;;;36.10;22.77;;;;;;;11.87;100.00;102141.44;5049959;28;20024;-68
2022/05/20 03:19:19;;;;;;;35.78;23.00;;;;;;;11.94;100.00;102148.28;5049043;28;20082;-68
2022/05/20 03:21:44;;;;;;;38.50;22.67;;;;;;;12.02;100.00;102148.09;5040495;28;20021;-69
2022/05/20 03:24:11;;;;;;;31.13;22.00;;;;;;;12.05;100.00;102146.22;5035960;28;20082;-68
2022/05/20 03:26:36;;;;;;;29.45;21.45;;;;;;;12.05;100.00;102143.56;5037075;28;20536;-67
2022/05/20 03:29:04;;;;;;;34.13;22.27;;;;;;;12.00;100.00;102136.66;5035974;28;20124;-67
2022/05/20 03:31:33;;;;;;;38.92;25.05;;;;;;;12.03;100.00;102133.91;5038790;28;20492;-68
2022/05/20 03:34:05;;;;;;;38.13;23.85;;;;;;;12.04;100.00;102128.53;5035443;28;20524;-68
2022/05/20 03:36:31;;;;;;;40.22;26.23;;;;;;;12.04;100.00;102138.31;5047842;28;20408;-68
2022/05/20 03:38:56;;;;;;;33.40;24.70;;;;;;;12.07;100.00;102122.25;5038261;28;20061;-69
2022/05/20 03:41:21;;;;;;;43.03;26.30;;;;;;;12.08;100.00;102130.19;5044142;28;20031;-69
2022/05/20 03:43:47;;;;;;;45.97;28.73;;;;;;;12.08;100.00;102116.03;5041122;28;20060;-69
2022/05/20 03:46:12;;;;;;;38.80;26.60;;;;;;;12.07;100.00;102106.34;5041357;28;20044;-68
2022/05/20 03:48:37;;;;;;;33.08;23.73;;;;;;;12.01;100.00;102118.03;5036227;28;20415;-68
2022/05/20 03:51:08;;;;;;;33.55;24.70;;;;;;;11.92;100.00;102110.31;5039554;28;20029;-68
2022/05/20 03:53:33;;;;;;;37.70;26.23;;;;;;;11.84;100.00;102121.16;5041460;28;20025;-68
2022/05/20 03:55:58;;;;;;;42.17;26.63;;;;;;;11.80;100.00;102116.84;5032033;28;20034;-68
2022/05/20 03:58:24;;;;;;;37.25;26.65;;;;;;;11.78;100.00;102108.91;5040436;28;20029;-66
2022/05/20 04:03:33;;;;;;;48.22;29.38;;;;;;;11.74;100.00;102099.31;5040197;28;20408;-67
2022/05/20 04:06:00;;;;;;;46.00;30.65;;;;;;;11.73;100.00;102089.63;5036097;28;20021;-67
2022/05/20 04:08:27;;;;;;;49.35;32.15;;;;;;;11.72;100.00;102079.91;5044825;28;20119;-67
2022/05/20 04:10:52;;;;;;;54.25;32.50;;;;;;;11.72;100.00;102093.19;5047236;28;20032;-67
2022/05/20 04:13:18;;;;;;;53.60;32.28;;;;;;;11.73;100.00;102084.31;5033333;28;20083;-67
2022/05/20 04:15:43;;;;;;;55.53;35.08;;;;;;;11.72;100.00;102093.19;5025574;28;20021;-68
2022/05/20 04:18:08;;;;;;;60.00;35.47;;;;;;;11.75;100.00;102101.06;5049812;28;20022;-68
2022/05/20 04:20:34;;;;;;;63.95;35.90;;;;;;;11.84;100.00;102101.69;5044174;28;20034;-68
2022/05/20 04:22:59;;;;;;;64.78;37.92;;;;;;;11.90;100.00;102097.06;5032990;28;20032;-68
2022/05/20 04:25:24;;;;;;;64.57;36.85;;;;;;;11.96;100.00;102098.72;5052585;28;20029;-68
2022/05/20 04:27:50;;;;;;;60.70;37.33;;;;;;;12.05;100.00;102105.53;5044543;28;20082;-69
2022/05/20 04:30:15;;;;;;;64.75;38.05;;;;;;;12.11;100.00;102106.19;5043921;28;20465;-69
2022/05/20 04:32:40;;;;;;;58.65;35.78;;;;;;;12.14;100.00;102107.91;5054342;28;20498;-69
2022/05/20 04:35:07;;;;;;;61.58;35.95;;;;;;;12.14;100.00;102105.25;5042250;28;20477;-69
2022/05/20 04:37:32;;;;;;;59.20;35.80;;;;;;;12.18;100.00;102106.88;5048677;28;20108;-69
2022/05/20 04:39:57;;;;;;;56.47;35.67;;;;;;;12.24;100.00;102109.34;5036515;28;20048;-70
2022/05/20 04:47:51;;;;;;;48.47;31.98;;;;;;;12.33;100.00;102104.63;5042930;28;20040;-68
2022/05/20 04:50:16;;;;;;;49.05;32.05;;;;;;;12.32;100.00;102108.25;5036457;28;20033;-68
2022/05/20 04:52:42;;;;;;;52.33;33.33;;;;;;;12.34;100.00;102115.25;5029573;28;20063;-68
2022/05/20 04:55:08;;;;;;;51.38;32.05;;;;;;;12.39;100.00;102109.75;5033209;28;20030;-69
2022/05/20 04:57:35;;;;;;;49.63;32.03;;;;;;;12.45;100.00;102109.56;5031799;28;20033;-69
2022/05/20 05:00:14;;;;;;;45.00;31.42;;;;;;;12.52;100.00;102112.88;5032402;28;20526;-68
2022/05/20 05:02:40;;;;;;;44.08;30.45;;;;;;;12.57;100.00;102113.59;5044345;28;20028;-68
2022/05/20 05:05:09;;;;;;;44.85;31.45;;;;;;;12.64;100.00;102120.47;5042667;28;20028;-68
2022/05/20 05:07:43;;;;;;;39.53;29.52;;;;;;;12.75;100.00;102122.78;5050196;28;20029;-68
2022/05/20 05:10:11;;;;;;;41.63;29.63;;;;;;;12.84;100.00;102126.91;5043755;28;20068;-67
2022/05/20 05:12:36;;;;;;;40.55;30.27;;;;;;;12.96;100.00;102121.19;5039956;28;20040;-69
2022/05/20 05:15:03;;;;;;;44.20;29.85;;;;;;;13.03;100.00;102121.81;5042746;28;20033;-69
2022/05/20 05:20:20;;;;;;;50.78;31.33;;;;;;;13.15;100.00;102116.09;5044562;28;20503;-69
2022/05/20 05:22:47;;;;;;;51.35;31.30;;;;;;;13.17;100.00;102121.34;5042173;28;20020;-69
2022/05/20 05:25:14;;;;;;;51.10;31.08;;;;;;;13.31;100.00;102128.84;5050714;28;20024;-69
2022/05/20 05:27:39;;;;;;;49.15;31.95;;;;;;;13.40;100.00;102121.44;5036935;28;20404;-69
2022/05/20 05:30:06;;;;;;;50.03;31.45;;;;;;;13.50;100.00;102121.94;5034032;28;20033;-68
2022/05/20 05:32:34;;;;;;;54.90;30.40;;;;;;;13.51;100.00;102122.84;5051621;28;20052;-68
2022/05/20 05:35:00;;;;;;;50.40;32.80;;;;;;;13.53;100.00;102119.19;5046959;28;20025;-69
2022/05/20 05:37:25;;;;;;;49.35;32.47;;;;;;;13.55;100.00;102111.16;5042336;28;20033;-68
2022/05/20 05:39:51;;;;;;;49.08;32.25;;;;;;;13.63;100.00;102106.38;5037925;28;20558;-68
2022/05/20 05:42:16;;;;;;;45.05;31.65;;;;;;;13.81;100.00;102103.97;5052039;28;20029;-67
2022/05/20 05:44:42;;;;;;;50.15;32.00;;;;;;;13.92;100.00;102099.09;5046550;28;20051;-68
2022/05/20 05:47:07;;;;;;;48.50;30.73;;;;;;;14.07;100.00;102106.50;5038010;28;20041;-68
2022/05/20 05:49:32;;;;;;;48.10;31.25;;;;;;;14.15;100.00;102111.50;5036875;28;20025;-68
2022/05/20 05:51:58;;;;;;;49.45;32.40;;;;;;;14.17;100.00;102100.78;5050417;28;20021;-68
2022/05/20 05:54:23;;;;;;;44.80;30.45;;;;;;;14.23;100.00;102101.44;5045875;28;20021;-68
2022/05/20 05:56:49;;;;;;;42.75;29.70;;;;;;;14.24;100.00;102116.47;5037564;28;20029;-69
2022/05/20 05:59:15;;;;;;;47.50;30.17;;;;;;;14.31;100.00;102110.91;5034525;28;20756;-69
2022/05/20 06:01:40;;;;;;;48.40;30.73;;;;;;;14.43;100.00;102103.28;5042283;28;20029;-70
2022/05/20 06:04:06;;;;;;;43.25;29.60;;;;;;;14.51;100.00;102092.28;5046685;28;20116;-69
2022/05/20 06:06:31;;;;;;;42.83;29.17;;;;;;;14.62;100.00;102099.00;5049391;28;20025;-69
2022/05/20 06:08:56;;;;;;;45.17;29.77;;;;;;;14.72;100.00;102101.25;5042331;28;20187;-69
2022/05/20 06:11:22;;;;;;;43.17;29.60;;;;;;;14.76;100.00;102091.31;5043012;28;20087;-68
2022/05/20 06:13:47;;;;;;;44.22;28.75;;;;;;;14.75;100.00;102094.91;5051332;28;20032;-69
2022/05/20 06:16:18;;;;;;;43.30;28.45;;;;;;;14.78;100.00;102099.25;5049490;28;20095;-68
2022/05/20 06:18:43;;;;;;;42.78;28.42;;;;;;;14.87;100.00;102081.06;5051579;28;20034;-68
2022/05/20 06:21:09;;;;;;;45.20;27.70;;;;;;;14.98;100.00;102077.91;5051396;28;20046;-68
2022/05/20 06:23:34;;;;;;;42.20;27.48;;;;;;;15.18;100.00;102081.50;5051072;28;20037;-68
2022/05/20 06:25:59;;;;;;;46.33;27.65;;;;;;;15.52;100.00;102083.50;5049009;28;20433;-68
2022/05/20 06:28:25;;;;;;;37.45;26.25;;;;;;;15.83;100.00;102089.25;5050930;28;20036;-68
2022/05/20 06:30:50;;;;;;;38.35;25.55;;;;;;;15.92;100.00;102088.84;5051896;28;20040;-69
2022/05/20 06:33:15;;;;;;;35.65;25.75;;;;;;;15.93;100.00;102089.72;5034274;28;20029;-69
2022/05/20 06:41:22;;;;;;;33.70;22.95;;;;;;;16.00;100.00;102091.16;5040384;28;20103;-69
2022/05/20 06:43:48;;;;;;;33.72;22.15;;;;;;;15.95;100.00;102085.16;5049019;28;20029;-69
2022/05/20 06:46:14;;;;;;;29.70;22.23;;;;;;;15.92;100.00;102077.28;5051430;28;20476;-68
2022/05/20 06:48:47;;;;;;;32.30;21.92;;;;;;;15.85;100.00;102082.06;5052003;28;20128;-68
2022/05/20 06:51:17;;;;;;;32.00;22.50;;;;;;;15.98;100.00;102085.00;5051801;28;20031;-68
2022/05/20 06:53:43;;;;;;;30.48;21.58;;;;;;;16.21;100.00;102081.22;5041480;28;20108;-67
2022/05/20 06:56:09;;;;;;;27.25;20.52;;;;;;;16.41;97.79;102074.91;5038469;28;20032;-68
2022/05/20 06:58:34;;;;;;;31.52;21.48;;;;;;;16.61;99.29;102067.66;5049023;28;20082;-67
2022/05/20 07:01:00;;;;;;;30.25;21.38;;;;;;;16.82;97.24;102065.72;5031412;28;20037;-69
2022/05/20 07:03:26;;;;;;;27.90;19.77;;;;;;;17.00;95.94;102056.75;5030506;28;20401;-68
2022/05/20 07:05:52;;;;;;;24.98;18.67;;;;;;;17.27;94.66;102063.41;5049314;28;20028;-67
2022/05/20 07:08:17;;;;;;;25.33;16.80;;;;;;;17.32;90.88;102066.69;5041881;28;20032;-68
2022/05/20 07:10:43;;;;;;;24.80;15.18;;;;;;;17.31;89.88;102062.28;5040224;28;20029;-68
2022/05/20 07:13:08;;;;;;;20.42;13.90;;;;;;;17.26;88.21;102065.19;5054666;28;20028;-69
2022/05/20 07:15:33;;;;;;;21.13;14.52;;;;;;;17.17;88.58;102049.66;5055835;28;20104;-69
2022/05/20 07:17:59;;;;;;;24.42;13.63;;;;;;;17.16;87.92;102050.59;5051203;28;20029;-69
2022/05/20 07:20:24;;;;;;;20.98;13.27;;;;;;;17.16;88.06;102042.56;5040492;28;20452;-69
2022/05/20 07:22:50;;;;;;;21.00;12.82;;;;;;;17.24;87.33;102043.03;5031330;28;20025;-69
2022/05/20 07:25:16;;;;;;;23.55;12.95;;;;;;;17.30;88.56;102039.13;5043494;28;20480;-69
2022/05/20 07:27:41;;;;;;;16.50;11.45;;;;;;;17.39;86.07;102046.66;5050159;28;20028;-69
2022/05/20 07:30:08;;;;;;;17.35;11.95;;;;;;;17.48;83.36;102038.16;5029455;28;20083;-68
2022/05/20 07:32:33;;;;;;;19.17;10.48;;;;;;;17.51;82.83;102040.63;5031475;28;20030;-68
2022/05/20 07:34:59;;;;;;;14.30;10.68;;;;;;;17.71;82.34;102029.78;5045266;28;20040;-66
2022/05/20 07:37:24;;;;;;;22.77;12.52;;;;;;;18.00;83.62;102020.13;5054047;28;20024;-65
2022/05/20 07:39:50;;;;;;;17.95;12.50;;;;;;;18.23;83.56;102012.56;5055168;28;20051;-65
2022/05/20 07:42:15;;;;;;;14.48;11.27;;;;;;;18.49;79.78;102003.84;5048807;28;20055;-66
2022/05/20 07:44:41;;;;;;;17.95;11.32;;;;;;;18.77;78.64;102003.97;5052972;28;20037;-66
2022/05/20 07:47:07;;;;;;;18.63;11.27;;;;;;;18.93;78.85;101991.38;5034846;28;20105;-65
2022/05/20 07:49:33;;;;;;;18.08;11.63;;;;;;;18.91;76.95;101984.38;5053212;28;20044;-66
2022/05/20 07:52:02;;;;;;;18.98;11.25;;;;;;;18.97;77.45;101987.53;5055370;28;20025;-67
2022/05/20 07:54:34;;;;;;;17.20;11.57;;;;;;;19.05;75.85;101980.84;5054882;28;20047;-67
2022/05/20 07:57:04;;;;;;;17.38;10.68;;;;;;;19.02;77.01;102005.19;5055097;28;20468;-67
2022/05/20 07:59:37;;;;;;;16.15;10.05;;;;;;;18.70;76.41;101995.44;5054497;28;20082;-67
2022/05/20 08:02:03;;;;;;;17.30;9.95;;;;;;;18.67;76.30;101992.97;5053487;28;20029;-67
2022/05/20 08:04:53;;;;;;;18.05;9.60;;;;;;;18.75;76.33;101977.25;5054825;28;20035;-68
2022/05/20 08:07:20;;;;;;;14.02;8.90;;;;;;;18.83;76.79;101976.75;5052901;28;20491;-67
2022/05/20 08:09:46;;;;;;;13.95;9.77;;;;;;;18.83;76.09;101977.63;5051285;28;20033;-68
2022/05/20 08:12:11;;;;;;;14.30;9.20;;;;;;;19.00;75.38;101970.38;5052552;28;20396;-67
2022/05/20 08:14:36;;;;;;;14.60;10.15;;;;;;;19.11;75.12;101972.41;5038793;28;20030;-67
2022/05/20 08:17:03;;;;;;;15.85;9.60;;;;;;;19.25;75.20;101963.47;5055841;28;20031;-68
2022/05/20 08:19:29;;;;;;;17.95;10.30;;;;;;;19.14;75.76;101973.06;5053319;28;20167;-68
2022/05/20 08:21:55;;;;;;;13.27;9.70;;;;;;;19.03;75.54;101966.63;5054968;28;20478;-68
2022/05/20 08:24:21;;;;;;;17.80;9.70;;;;;;;19.18;75.45;101970.19;5054332;28;20040;-68
2022/05/20 08:26:46;;;;;;;15.32;9.13;;;;;;;19.56;75.15;101961.47;5054554;28;20032;-68
2022/05/20 08:29:12;;;;;;;14.85;9.68;;;;;;;19.83;73.01;101957.97;5051496;28;20029;-68
2022/05/20 08:31:39;;;;;;;15.18;9.50;;;;;;;19.87;71.09;101944.22;5052939;28;20013;-69
2022/05/20 08:34:05;;;;;;;12.77;8.77;;;;;;;20.04;69.56;101929.66;5053649;28;20116;-68
2022/05/20 08:36:31;;;;;;;14.63;9.02;;;;;;;19.78;71.98;101926.00;5048653;28;20451;-68
2022/05/20 08:38:56;;;;;;;15.38;9.27;;;;;;;19.93;71.51;101925.00;5043119;28;20045;-68
2022/05/20 08:41:34;;;;;;;15.13;9.05;;;;;;;20.06;72.41;101910.72;5041550;28;20040;-68
2022/05/20 08:44:00;;;;;;;15.32;9.40;;;;;;;20.38;72.01;101894.19;5034461;28;20102;-68
2022/05/20 08:46:26;;;;;;;13.85;9.18;;;;;;;20.48;69.52;101889.88;5033456;28;20546;-67
2022/05/20 08:48:57;;;;;;;16.65;10.30;;;;;;;20.65;70.43;101886.00;5034496;28;20025;-68
2022/05/20 08:51:24;;;;;;;14.95;9.27;;;;;;;21.00;67.95;101876.38;5049223;28;20021;-68
2022/05/20 08:53:50;;;;;;;13.85;9.30;;;;;;;21.18;66.39;101864.28;5046359;28;20507;-68
2022/05/20 08:56:22;;;;;;;12.48;8.48;;;;;;;21.57;64.78;101856.94;5041771;28;20373;-68
2022/05/20 08:58:59;;;;;;;11.73;8.07;;;;;;;21.59;63.55;101857.66;5039697;28;20053;-67
2022/05/20 09:01:40;;;;;;;15.32;9.30;;;;;;;21.26;63.97;101859.16;5044955;28;20029;-68
2022/05/20 09:04:10;;;;;;;13.02;9.35;;;;;;;21.13;65.23;101866.44;5052827;28;20036;-67
2022/05/20 09:06:39;;;;;;;12.77;7.85;;;;;;;20.91;64.78;101876.09;5053653;28;20067;-68
2022/05/20 09:09:14;;;;;;;12.43;7.70;;;;;;;20.78;63.30;101876.13;5051116;28;20051;-67
2022/05/20 09:11:44;;;;;;;10.30;7.05;;;;;;;20.61;64.40;101871.94;5052325;28;20099;-68
2022/05/20 09:17:15;;;;;;;11.40;7.32;;;;;;;20.52;67.35;101866.31;5036930;28;20044;-68
2022/05/20 09:20:06;;;;;;;15.65;7.25;;;;;;;20.58;65.59;101872.13;5042253;28;20435;-68
2022/05/20 09:22:36;;;;;;;17.40;7.05;;;;;;;20.62;67.21;101865.53;5043886;28;20028;-67
2022/05/20 09:25:04;;;;;;;11.48;6.97;;;;;;;20.75;65.54;101859.31;5049335;28;20028;-67
2022/05/20 09:27:33;;;;;;;10.70;6.13;;;;;;;21.00;64.13;101847.66;5051920;28;20035;-68
2022/05/20 09:30:03;;;;;;;10.57;6.90;;;;;;;21.10;63.32;101837.91;5053397;28;20048;-67
2022/05/20 09:32:37;;;;;;;13.52;7.05;;;;;;;21.27;63.80;101831.25;5051454;28;20384;-68
2022/05/20 09:35:20;;;;;;;10.77;6.75;;;;;;;21.39;63.17;101834.88;5053605;28;20029;-69
2022/05/20 09:37:48;;;;;;;11.50;6.82;;;;;;;21.42;64.88;101828.38;5052855;28;20029;-68
2022/05/20 09:40:20;;;;;;;14.60;7.53;;;;;;;21.43;63.00;101819.34;5052059;28;20078;-63
2022/05/20 09:43:05;;;;;;;13.35;7.40;;;;;;;21.38;64.49;101808.91;5051802;28;20025;-67
2022/05/20 09:45:44;;;;;;;13.50;6.82;;;;;;;21.35;64.11;101797.50;5051600;28;20128;-65
2022/05/20 09:48:13;;;;;;;12.52;6.63;;;;;;;21.21;63.21;101801.25;5052123;28;20032;-67
2022/05/20 09:50:38;;;;;;;11.93;6.43;;;;;;;21.37;62.03;101793.72;5051008;28;20083;-67
2022/05/20 09:53:33;;;;;;;15.10;6.28;;;;;;;21.53;62.80;101777.22;5046208;28;20033;-66
2022/05/20 09:56:21;;;;;;;10.80;6.32;;;;;;;21.84;61.46;101763.25;5041208;28;20515;-67
2022/05/20 09:59:41;;;;;;;12.00;6.22;;;;;;;21.87;57.40;101755.78;5042013;28;20480;-67
2022/05/20 10:02:22;;;;;;;9.82;6.10;;;;;;;21.66;58.99;101739.44;5020744;28;20045;-68
2022/05/20 10:05:03;;;;;;;10.35;6.07;;;;;;;21.32;59.51;101725.88;5051049;28;20021;-67
2022/05/20 10:07:49;;;;;;;11.30;5.60;;;;;;;21.41;59.18;101725.16;5044041;28;20112;-68
2022/05/20 10:10:42;;;;;;;11.80;6.35;;;;;;;21.36;59.91;101738.13;5060594;28;20052;-68
2022/05/20 10:13:32;;;;;;;13.90;6.30;;;;;;;21.22;61.53;101724.84;5050313;28;20021;-68
2022/05/20 10:16:28;;;;;;;11.43;6.72;;;;;;;21.32;61.50;101712.41;5050352;28;20039;-68
2022/05/20 10:18:54;;;;;;;13.23;7.03;;;;;;;21.42;61.15;101713.41;5049060;28;20075;-67
2022/05/20 10:21:33;;;;;;;12.32;6.80;;;;;;;21.56;59.38;101692.63;5051195;28;20028;-68
2022/05/20 10:24:17;;;;;;;9.88;5.78;;;;;;;21.92;57.17;101679.94;5051572;28;20587;-68
2022/05/20 10:27:09;;;;;;;8.82;5.63;;;;;;;22.16;55.28;101666.31;5040772;28;20052;-68
2022/05/20 10:32:54;;;;;;;10.48;5.95;;;;;;;22.35;53.87;101606.28;5042502;28;20063;-68
2022/05/20 10:35:23;;;;;;;11.40;6.03;;;;;;;22.42;54.89;101607.53;5045358;28;20036;-68
2022/05/20 10:38:05;;;;;;;10.52;6.30;;;;;;;22.35;53.86;101590.09;5050158;28;20039;-68
2022/05/20 10:40:49;;;;;;;9.75;6.25;;;;;;;22.07;54.78;101602.31;5046929;28;20057;-67
2022/05/20 10:49:29;;;;;;;11.40;6.78;;;;;;;21.13;61.96;101598.97;5037376;28;20052;-81
2022/05/20 10:52:09;;;;;;;10.32;6.03;;;;;;;20.75;62.75;101590.16;5060593;28;20036;-82
2022/05/20 10:55:02;;;;;;;10.73;6.65;;;;;;;20.34;62.28;101568.06;5053257;28;20048;-83
2022/05/20 10:58:02;;;;;;;11.77;7.25;;;;;;;20.13;63.82;101555.25;5048874;28;20503;-82
2022/05/20 11:00:50;;;;;;;10.65;6.70;;;;;;;20.07;63.46;101539.56;5053483;28;20135;-83
2022/05/20 11:03:25;;;;;;;10.65;6.93;;;;;;;20.04;65.63;101545.19;5053514;28;20021;-83
2022/05/20 11:06:21;;;;;;;12.00;7.85;;;;;;;20.17;63.98;101529.00;5038464;28;20029;-83
2022/05/20 11:09:07;;;;;;;12.60;8.05;;;;;;;20.35;63.98;101523.22;5035092;28;20041;-83
2022/05/20 11:11:52;;;;;;;12.90;8.20;;;;;;;20.56;65.24;101524.28;5034808;28;20472;-82
2022/05/20 11:14:35;;;;;;;14.50;8.02;;;;;;;20.82;63.48;101510.69;5035239;28;20025;-82
2022/05/20 11:17:08;;;;;;;11.55;8.90;;;;;;;20.63;64.29;101530.88;5034396;28;20495;-82
2022/05/20 11:19:55;;;;;;;15.15;8.40;;;;;;;20.38;62.12;101517.59;5025359;28;20021;-83
2022/05/20 11:22:29;;;;;;;12.35;9.13;;;;;;;20.06;64.52;101520.88;5032760;28;20029;-82
2022/05/20 11:25:07;;;;;;;10.85;7.53;;;;;;;19.96;65.16;101523.38;5031692;28;20429;-81
2022/05/20 11:28:00;;;;;;;12.88;8.30;;;;;;;19.76;65.12;101527.53;5033612;28;20033;-83
2022/05/20 11:30:32;;;;;;;12.45;8.32;;;;;;;19.60;68.05;101525.06;5031244;28;20143;-83
2022/05/20 11:33:24;;;;;;;;;;;;;;;19.49;67.29;101536.59;5033963;28;20025;-83
2022/05/20 11:36:15;;;;;;;15.90;8.18;;;;;;;19.22;66.72;101537.59;5034217;28;19916;-83
2022/05/20 11:38:58;;;;;;;14.23;8.10;;;;;;;19.13;69.00;101528.34;5063572;28;20395;-82
2022/05/20 11:42:03;;;;;;;12.65;7.43;;;;;;;19.06;72.14;101491.31;5014816;28;20033;-82
2022/05/20 11:44:47;;;;;;;14.65;9.35;;;;;;;18.24;81.15;101441.44;5024858;28;20022;-85
2022/05/20 11:47:43;;;;;;;22.50;10.60;;;;;;;17.46;88.46;101431.38;5034916;28;20049;-85
2022/05/20 11:50:33;;;;;;;18.90;9.00;;;;;;;16.94;93.14;101406.09;5015553;28;20029;-85
2022/05/20 11:53:14;;;;;;;17.75;10.35;;;;;;;16.70;96.20;101418.19;5033210;28;20026;-85
2022/05/20 11:55:39;;;;;;;20.30;10.77;;;;;;;16.44;96.63;101437.63;5046793;28;20423;-85
2022/05/20 11:58:10;;;;;;;19.17;10.70;;;;;;;16.19;100.00;101444.44;5035150;28;20063;-84
2022/05/20 12:00:40;;;;;;;25.63;13.15;;;;;;;16.09;100.00;101457.47;5034895;28;20107;-84